createdAt,value
2018-05-09T00:02:18.596Z,13.13
2018-05-09T00:04:47.698Z,8.90
2018-05-09T00:07:16.801Z,12.60
2018-05-09T00:09:45.984Z,9.63
2018-05-09T00:12:15.092Z,9.33
2018-05-09T00:14:44.277Z,19.80
2018-05-09T00:17:13.390Z,10.10
2018-05-09T00:19:42.518Z,14.23
2018-05-09T00:22:11.621Z,7.47
2018-05-09T00:24:40.770Z,16.57
2018-05-09T00:27:09.862Z,9.80
2018-05-09T00:29:38.958Z,6.83
2018-05-09T00:32:08.068Z,19.33
2018-05-09T00:34:37.175Z,8.30
2018-05-09T00:37:06.333Z,13.70
2018-05-09T00:39:35.529Z,9.87
2018-05-09T00:42:04.726Z,12.60
2018-05-09T00:44:33.929Z,9.83
2018-05-09T00:47:05.058Z,10.83
2018-05-09T00:49:34.166Z,14.33
2018-05-09T00:52:03.360Z,10.87
2018-05-09T00:54:32.544Z,8.47
2018-05-09T00:57:01.753Z,8.37
2018-05-09T00:59:30.870Z,10.53
2018-05-09T01:02:00.346Z,9.23
2018-05-09T01:04:29.444Z,16.13
2018-05-09T01:06:58.545Z,11.23
2018-05-09T01:09:27.654Z,12.20
2018-05-09T01:11:56.764Z,14.80
2018-05-09T01:14:25.912Z,11.40
2018-05-09T01:16:55.056Z,11.73
2018-05-09T01:19:24.177Z,13.50
2018-05-09T01:21:53.269Z,11.40
2018-05-09T01:24:25.588Z,14.53
2018-05-09T01:26:54.685Z,9.57
2018-05-09T01:29:23.870Z,11.47
2018-05-09T01:31:53.050Z,12.00
2018-05-09T01:34:22.525Z,9.90
2018-05-09T01:36:51.647Z,11.40
2018-05-09T01:39:20.845Z,10.00
2018-05-09T01:41:50.557Z,10.80
2018-05-09T01:44:19.661Z,10.23
2018-05-09T01:46:48.782Z,10.30
2018-05-09T01:49:17.865Z,9.33
2018-05-09T01:51:46.962Z,11.57
2018-05-09T01:54:18.068Z,12.20
2018-05-09T01:56:47.164Z,10.53
2018-05-09T01:59:16.273Z,8.73
2018-05-09T02:01:45.376Z,10.20
2018-05-09T02:04:14.572Z,11.10
2018-05-09T02:06:43.750Z,20.00
2018-05-09T02:09:12.999Z,11.07
2018-05-09T02:11:42.145Z,14.30
2018-05-09T02:14:11.385Z,10.80
2018-05-09T02:16:41.245Z,10.17
2018-05-09T02:19:10.479Z,11.07
2018-05-09T02:21:39.707Z,10.53
2018-05-09T02:24:08.879Z,14.10
2018-05-09T02:26:37.934Z,10.40
2018-05-09T02:29:07.051Z,12.80
2018-05-09T02:31:36.165Z,14.10
2018-05-09T02:34:05.313Z,14.93
2018-05-09T02:36:34.408Z,12.37
2018-05-09T02:39:03.573Z,12.30
2018-05-09T02:41:32.814Z,10.73
2018-05-09T02:44:01.913Z,14.50
2018-05-09T02:46:31.025Z,14.07
2018-05-09T02:49:00.187Z,19.50
2018-05-09T02:51:29.311Z,13.53
2018-05-09T02:53:58.430Z,15.57
2018-05-09T02:56:27.544Z,11.90
2018-05-09T02:58:56.637Z,11.23
2018-05-09T03:01:25.733Z,11.17
2018-05-09T03:03:54.850Z,12.73
2018-05-09T03:06:23.937Z,10.90
2018-05-09T03:08:53.066Z,13.53
2018-05-09T03:11:22.181Z,24.23
2018-05-09T03:13:51.293Z,13.67
2018-05-09T03:16:20.448Z,15.87
2018-05-09T03:18:49.629Z,16.30
2018-05-09T03:21:18.773Z,17.00
2018-05-09T03:23:47.880Z,13.07
2018-05-09T03:26:17.002Z,14.37
2018-05-09T03:28:46.117Z,17.80
2018-05-09T03:31:15.299Z,15.03
2018-05-09T03:33:44.426Z,12.70
2018-05-09T03:36:16.563Z,15.60
2018-05-09T03:38:45.769Z,17.13
2018-05-09T03:41:14.953Z,11.30
2018-05-09T03:43:46.098Z,17.30
2018-05-09T03:46:15.219Z,17.80
2018-05-09T03:48:44.361Z,17.90
2018-05-09T03:51:13.487Z,30.63
2018-05-09T03:53:42.583Z,15.37
2018-05-09T03:56:11.752Z,15.90
2018-05-09T03:58:40.887Z,14.63
2018-05-09T04:01:10.049Z,16.80
2018-05-09T04:03:45.189Z,22.77
2018-05-09T04:06:20.225Z,23.60
2018-05-09T04:08:55.221Z,20.03
2018-05-09T04:11:24.359Z,18.53
2018-05-09T04:13:53.445Z,15.00
2018-05-09T04:16:22.650Z,26.33
2018-05-09T04:18:51.829Z,19.33
2018-05-09T04:21:21.031Z,18.00
2018-05-09T04:23:50.235Z,23.60
2018-05-09T04:26:19.320Z,19.13
2018-05-09T04:28:48.453Z,12.70
2018-05-09T04:31:17.554Z,14.90
2018-05-09T04:33:46.673Z,16.97
2018-05-09T04:36:15.794Z,21.43
2018-05-09T04:38:46.817Z,20.43
2018-05-09T04:41:15.938Z,15.37
2018-05-09T04:43:45.141Z,15.83
2018-05-09T04:46:14.322Z,19.17
2018-05-09T04:48:43.417Z,16.33
2018-05-09T04:51:12.528Z,16.20
2018-05-09T04:53:41.710Z,22.87
2018-05-09T04:56:11.026Z,20.00
2018-05-09T04:58:40.129Z,25.17
2018-05-09T05:01:09.373Z,25.10
2018-05-09T05:03:38.481Z,14.33
2018-05-09T05:06:07.577Z,15.60
2018-05-09T05:08:36.785Z,11.40
2018-05-09T05:11:05.935Z,19.07
2018-05-09T05:13:35.086Z,13.07
2018-05-09T05:16:04.202Z,20.77
2018-05-09T05:18:33.293Z,18.80
2018-05-09T05:21:02.457Z,16.43
2018-05-09T05:23:31.652Z,29.20
2018-05-09T05:26:00.755Z,13.27
2018-05-09T05:28:29.865Z,23.10
2018-05-09T05:30:58.976Z,15.03
2018-05-09T05:33:28.135Z,20.67
2018-05-09T05:35:57.330Z,17.50
2018-05-09T05:38:26.506Z,19.33
2018-05-09T05:40:55.616Z,19.90
2018-05-09T05:43:24.817Z,19.90
2018-05-09T05:45:53.913Z,23.00
2018-05-09T05:48:23.101Z,20.53
2018-05-09T05:50:52.309Z,13.83
2018-05-09T05:53:21.395Z,24.97
2018-05-09T05:55:50.517Z,40.47
2018-05-09T05:58:19.686Z,41.60
2018-05-09T06:00:48.929Z,18.80
2018-05-09T06:03:18.278Z,27.27
2018-05-09T06:05:48.418Z,28.93
2018-05-09T06:08:17.575Z,24.90
2018-05-09T06:10:46.713Z,19.40
2018-05-09T06:13:15.888Z,20.07
2018-05-09T06:15:44.985Z,21.23
2018-05-09T06:18:15.095Z,26.50
2018-05-09T06:20:44.292Z,23.63
2018-05-09T06:23:14.396Z,17.53
2018-05-09T06:25:43.617Z,21.07
2018-05-09T06:28:12.737Z,19.20
2018-05-09T06:30:41.846Z,18.40
2018-05-09T06:33:10.963Z,30.50
2018-05-09T06:35:40.250Z,20.83
2018-05-09T06:38:10.401Z,20.17
2018-05-09T06:40:39.521Z,14.43
2018-05-09T06:43:12.251Z,24.77
2018-05-09T06:45:41.386Z,20.90
2018-05-09T06:48:10.510Z,19.27
2018-05-09T06:50:39.609Z,21.57
2018-05-09T06:53:08.710Z,19.00
2018-05-09T06:55:36.197Z,21.43
2018-05-09T06:58:03.653Z,20.53
2018-05-09T07:00:31.319Z,19.30
2018-05-09T07:02:58.758Z,12.47
2018-05-09T07:05:26.240Z,14.33
2018-05-09T07:07:53.700Z,12.70
2018-05-09T07:10:21.247Z,18.43
2018-05-09T07:12:48.724Z,14.43
2018-05-09T07:15:16.176Z,15.60
2018-05-09T07:17:43.731Z,15.20
2018-05-09T07:20:11.279Z,17.83
2018-05-09T07:22:38.951Z,26.40
2018-05-09T07:25:06.395Z,23.23
2018-05-09T07:27:33.871Z,19.50
2018-05-09T07:30:01.372Z,20.60
2018-05-09T07:32:28.859Z,25.33
2018-05-09T07:34:56.414Z,30.83
2018-05-09T07:37:23.966Z,28.67
2018-05-09T07:39:54.989Z,30.80
2018-05-09T07:42:22.470Z,22.40
2018-05-09T07:44:49.935Z,35.73
2018-05-09T07:47:17.488Z,23.27
2018-05-09T07:49:45.339Z,30.13
2018-05-09T07:52:12.831Z,24.20
2018-05-09T07:54:41.063Z,36.97
2018-05-09T07:57:08.631Z,19.10
2018-05-09T07:59:36.121Z,22.50
2018-05-09T08:02:04.368Z,21.43
2018-05-09T08:04:31.813Z,18.77
2018-05-09T08:06:59.271Z,19.43
2018-05-09T08:09:27.753Z,30.50
2018-05-09T08:11:55.242Z,15.80
2018-05-09T08:14:23.542Z,17.83
2018-05-09T08:16:51.888Z,19.17
2018-05-09T08:19:19.428Z,21.93
2018-05-09T08:21:46.973Z,20.20
2018-05-09T08:24:14.429Z,21.73
2018-05-09T08:26:41.978Z,26.53
2018-05-09T08:29:09.437Z,16.67
2018-05-09T08:31:36.897Z,23.50
2018-05-09T08:34:04.454Z,18.10
2018-05-09T08:36:31.995Z,19.23
2018-05-09T08:38:59.361Z,19.03
2018-05-09T08:41:26.974Z,11.23
2018-05-09T08:43:55.281Z,11.40
2018-05-09T08:46:22.647Z,10.63
2018-05-09T08:48:50.104Z,17.23
2018-05-09T08:51:17.567Z,11.23
2018-05-09T08:53:45.123Z,12.13
2018-05-09T08:56:12.591Z,9.73
2018-05-09T08:58:40.117Z,14.47
2018-05-09T09:01:07.594Z,13.37
2018-05-09T09:03:36.027Z,12.70
2018-05-09T09:06:03.538Z,13.10
2018-05-09T09:08:30.999Z,13.40
2018-05-09T09:10:58.621Z,11.43
2018-05-09T09:13:26.069Z,14.80
2018-05-09T09:15:53.662Z,7.83
2018-05-09T09:18:21.223Z,11.10
2018-05-09T09:20:48.699Z,15.67
2018-05-09T09:23:16.151Z,11.53
2018-05-09T09:25:43.608Z,17.40
2018-05-09T09:28:11.134Z,10.03
2018-05-09T09:30:38.690Z,17.07
2018-05-09T09:33:06.138Z,13.50
2018-05-09T09:35:33.591Z,9.30
2018-05-09T09:38:01.071Z,10.73
2018-05-09T09:40:28.624Z,11.80
2018-05-09T09:42:56.198Z,11.00
2018-05-09T09:45:25.150Z,20.30
2018-05-09T09:47:52.614Z,10.60
2018-05-09T09:50:20.068Z,19.33
2018-05-09T09:52:48.570Z,6.43
2018-05-09T09:55:16.032Z,12.03
2018-05-09T09:57:43.474Z,11.63
2018-05-09T10:00:10.939Z,11.17
2018-05-09T10:02:38.384Z,8.43
2018-05-09T10:05:05.939Z,11.23
2018-05-09T10:07:33.386Z,13.73
2018-05-09T10:10:01.122Z,14.73
2018-05-09T10:12:28.775Z,13.10
2018-05-09T10:14:56.292Z,16.20
2018-05-09T10:17:23.854Z,17.77
2018-05-09T10:19:52.103Z,18.70
2018-05-09T10:22:19.978Z,23.83
2018-05-09T10:24:47.431Z,15.70
2018-05-09T10:27:14.999Z,15.47
2018-05-09T10:29:42.464Z,20.63
2018-05-09T10:32:10.862Z,15.77
2018-05-09T10:34:38.317Z,20.17
2018-05-09T10:37:06.586Z,15.10
2018-05-09T10:39:34.831Z,11.67
2018-05-09T10:42:03.109Z,18.07
2018-05-09T10:44:30.547Z,20.17
2018-05-09T10:46:58.014Z,11.53
2018-05-09T10:49:25.563Z,17.63
2018-05-09T10:51:53.115Z,19.07
2018-05-09T10:54:20.569Z,10.40
2018-05-09T10:56:48.194Z,11.93
2018-05-09T10:59:15.635Z,14.10
2018-05-09T11:01:43.147Z,7.73
2018-05-09T11:04:11.786Z,19.87
2018-05-09T11:06:40.206Z,12.40
2018-05-09T11:09:11.247Z,7.33
2018-05-09T11:11:38.889Z,9.53
2018-05-09T11:14:06.380Z,13.63
2018-05-09T11:16:33.843Z,7.17
2018-05-09T11:19:04.420Z,13.83
2018-05-09T11:21:31.875Z,10.17
2018-05-09T11:23:59.326Z,13.33
2018-05-09T11:26:26.849Z,16.13
2018-05-09T11:28:55.182Z,12.57
2018-05-09T11:31:22.634Z,9.03
2018-05-09T11:33:51.083Z,11.13
2018-05-09T11:36:18.607Z,9.93
2018-05-09T11:38:46.820Z,12.43
2018-05-09T11:41:14.292Z,13.13
2018-05-09T11:43:42.806Z,10.50
2018-05-09T11:46:10.379Z,9.13
2018-05-09T11:48:37.839Z,10.33
2018-05-09T11:51:06.049Z,11.80
2018-05-09T11:53:34.186Z,12.37
2018-05-09T11:56:02.394Z,13.20
2018-05-09T11:58:29.854Z,11.93
2018-05-09T12:00:57.327Z,15.10
2018-05-09T12:03:25.848Z,12.80
2018-05-09T12:05:54.058Z,12.33
2018-05-09T12:08:21.714Z,10.63
2018-05-09T12:10:49.280Z,16.90
2018-05-09T12:13:16.778Z,13.70
2018-05-09T12:15:44.301Z,10.23
2018-05-09T12:18:11.823Z,10.40
2018-05-09T12:20:39.291Z,11.60
2018-05-09T12:23:06.788Z,16.10
2018-05-09T12:25:34.290Z,14.33
2018-05-09T12:28:01.759Z,10.37
2018-05-09T12:30:31.191Z,12.20
2018-05-09T12:32:59.672Z,12.80
2018-05-09T12:35:27.141Z,13.13
2018-05-09T12:37:54.683Z,16.03
2018-05-09T12:40:22.244Z,9.90
2018-05-09T12:42:49.700Z,9.37
2018-05-09T12:45:18.083Z,14.70
2018-05-09T12:47:45.701Z,7.80
2018-05-09T12:50:13.152Z,8.77
2018-05-09T12:52:40.718Z,12.37
2018-05-09T12:55:09.148Z,8.57
2018-05-09T12:57:37.508Z,9.60
2018-05-09T13:00:04.994Z,13.60
2018-05-09T13:02:32.825Z,11.70
2018-05-09T13:05:00.275Z,11.10
2018-05-09T13:07:27.906Z,13.77
2018-05-09T13:09:55.390Z,14.40
2018-05-09T13:12:22.850Z,15.77
2018-05-09T13:14:50.300Z,7.70
2018-05-09T13:17:17.852Z,9.63
2018-05-09T13:19:45.550Z,13.60
2018-05-09T13:22:13.073Z,9.20
2018-05-09T13:24:40.550Z,13.27
2018-05-09T13:27:08.236Z,10.50
2018-05-09T13:29:36.487Z,14.53
2018-05-09T13:32:06.037Z,11.83
2018-05-09T13:34:34.540Z,9.80
2018-05-09T13:37:02.016Z,11.43
2018-05-09T13:39:29.566Z,16.13
2018-05-09T13:41:57.034Z,14.30
2018-05-09T13:44:25.302Z,15.93
2018-05-09T13:46:53.158Z,6.70
2018-05-09T13:49:22.510Z,11.87
2018-05-09T13:51:49.969Z,11.77
2018-05-09T13:54:17.448Z,12.07
2018-05-09T13:56:45.274Z,14.77
2018-05-09T13:59:13.575Z,8.53
2018-05-09T14:01:41.077Z,10.23
2018-05-09T14:04:12.846Z,13.17
2018-05-09T14:06:43.506Z,10.10
2018-05-09T14:09:10.967Z,14.23
2018-05-09T14:11:38.407Z,11.47
2018-05-09T14:14:07.605Z,9.80
2018-05-09T14:16:35.061Z,14.43
2018-05-09T14:19:02.519Z,8.13
2018-05-09T14:21:30.001Z,7.10
2018-05-09T14:23:57.442Z,21.70
2018-05-09T14:26:25.871Z,10.67
2018-05-09T14:28:54.340Z,13.87
2018-05-09T14:31:22.228Z,10.67
2018-05-09T14:33:50.046Z,9.40
2018-05-09T14:36:17.499Z,10.90
2018-05-09T14:38:44.992Z,9.33
2018-05-09T14:41:13.199Z,21.30
2018-05-09T14:43:41.033Z,9.23
2018-05-09T14:46:09.485Z,9.60
2018-05-09T14:48:36.930Z,10.30
2018-05-09T14:51:05.322Z,11.10
2018-05-09T14:53:32.779Z,6.73
2018-05-09T14:56:00.236Z,8.23
2018-05-09T14:58:27.685Z,10.97
2018-05-09T15:00:57.058Z,7.00
2018-05-09T15:03:24.909Z,12.87
2018-05-09T15:05:52.425Z,8.47
2018-05-09T15:08:19.874Z,6.83
2018-05-09T15:10:47.357Z,11.00
2018-05-09T15:13:15.570Z,10.63
2018-05-09T15:15:43.028Z,8.73
2018-05-09T15:18:10.476Z,21.10
2018-05-09T15:20:38.850Z,7.63
2018-05-09T15:23:06.348Z,11.97
2018-05-09T15:25:33.892Z,11.20
2018-05-09T15:28:01.363Z,14.33
2018-05-09T15:30:30.960Z,10.67
2018-05-09T15:32:59.739Z,13.23
2018-05-09T15:35:27.221Z,11.80
2018-05-09T15:37:54.660Z,8.80
2018-05-09T15:40:32.862Z,13.07
2018-05-09T15:43:00.422Z,16.77
2018-05-09T15:45:31.330Z,10.90
2018-05-09T15:47:58.803Z,8.73
2018-05-09T15:50:26.259Z,17.03
2018-05-09T15:52:53.735Z,13.93
2018-05-09T15:55:21.192Z,14.27
2018-05-09T15:57:48.760Z,9.50
2018-05-09T16:00:16.403Z,10.00
2018-05-09T16:02:43.852Z,14.90
2018-05-09T16:05:11.308Z,10.20
2018-05-09T16:07:39.045Z,20.43
2018-05-09T16:10:06.545Z,8.93
2018-05-09T16:12:34.095Z,10.87
2018-05-09T16:15:01.646Z,11.10
2018-05-09T16:17:29.082Z,9.87
2018-05-09T16:19:57.591Z,10.50
2018-05-09T16:22:25.093Z,14.80
2018-05-09T16:24:52.607Z,9.17
2018-05-09T16:27:20.160Z,14.90
2018-05-09T16:29:49.647Z,13.80
2018-05-09T16:32:18.142Z,9.70
2018-05-09T16:34:45.586Z,12.20
2018-05-09T16:37:13.406Z,7.90
2018-05-09T16:39:40.879Z,13.13
2018-05-09T16:42:08.696Z,15.53
2018-05-09T16:44:37.097Z,9.13
2018-05-09T16:47:04.601Z,12.60
2018-05-09T16:49:32.603Z,23.50
2018-05-09T16:52:00.029Z,25.00
2018-05-09T16:54:27.496Z,9.50
2018-05-09T16:56:54.950Z,23.27
2018-05-09T16:59:23.388Z,14.37
2018-05-09T17:01:50.878Z,15.30
2018-05-09T17:04:18.347Z,26.03
2018-05-09T17:06:46.820Z,12.23
2018-05-09T17:09:14.293Z,19.33
2018-05-09T17:11:42.539Z,18.87
2018-05-09T17:14:09.997Z,17.53
2018-05-09T17:16:37.774Z,15.73
2018-05-09T17:19:05.335Z,14.23
2018-05-09T17:21:45.597Z,7.80
2018-05-09T17:24:13.828Z,10.80
2018-05-09T17:26:41.271Z,13.33
2018-05-09T17:29:08.860Z,8.43
2018-05-09T17:31:36.320Z,12.63
2018-05-09T17:34:03.769Z,11.73
2018-05-09T17:36:31.229Z,16.63
2018-05-09T17:38:58.661Z,11.07
2018-05-09T17:41:26.145Z,8.43
2018-05-09T17:43:53.578Z,9.50
2018-05-09T17:46:21.162Z,22.40
2018-05-09T17:48:49.569Z,17.23
2018-05-09T17:51:18.766Z,13.90
2018-05-09T17:53:46.282Z,18.33
2018-05-09T17:56:13.740Z,23.80
2018-05-09T17:58:42.264Z,20.27
2018-05-09T18:01:09.681Z,19.43
2018-05-09T18:03:37.159Z,30.20
2018-05-09T18:06:05.368Z,16.20
2018-05-09T18:08:34.746Z,22.63
2018-05-09T18:11:02.223Z,10.17
2018-05-09T18:13:29.659Z,23.40
2018-05-09T18:15:57.131Z,23.37
2018-05-09T18:18:24.575Z,13.93
2018-05-09T18:20:52.018Z,19.23
2018-05-09T18:23:19.486Z,11.90
2018-05-09T18:25:46.959Z,12.97
2018-05-09T18:28:14.437Z,15.63
2018-05-09T18:30:41.893Z,16.83
2018-05-09T18:33:09.345Z,17.10
2018-05-09T18:35:36.905Z,10.77
2018-05-09T18:38:04.360Z,15.67
2018-05-09T18:40:31.812Z,15.67
2018-05-09T18:42:59.311Z,16.83
2018-05-09T18:45:27.525Z,16.97
2018-05-09T18:47:55.328Z,12.43
2018-05-09T18:50:22.775Z,22.87
2018-05-09T18:52:50.232Z,10.80
2018-05-09T18:55:17.777Z,18.77
2018-05-09T18:57:45.234Z,25.10
2018-05-09T19:00:12.793Z,24.83
2018-05-09T19:02:40.237Z,19.07
2018-05-09T19:05:07.713Z,24.03
2018-05-09T19:07:37.098Z,21.97
2018-05-09T19:10:04.545Z,29.50
2018-05-09T19:12:32.006Z,24.77
2018-05-09T19:14:59.472Z,12.87
2018-05-09T19:17:27.253Z,12.00
2018-05-09T19:19:54.688Z,14.70
2018-05-09T19:22:24.161Z,22.13
2018-05-09T19:24:51.649Z,27.33
2018-05-09T19:27:20.125Z,26.60
2018-05-09T19:29:47.690Z,18.43
2018-05-09T19:32:15.426Z,22.73
2018-05-09T19:34:42.909Z,18.00
2018-05-09T19:37:10.475Z,19.67
2018-05-09T19:39:38.022Z,20.10
2018-05-09T19:42:05.797Z,15.17
2018-05-09T19:44:36.268Z,35.73
2018-05-09T19:47:03.723Z,19.20
2018-05-09T19:49:31.186Z,30.93
2018-05-09T19:51:58.645Z,25.87
2018-05-09T19:54:26.182Z,33.03
2018-05-09T19:56:54.437Z,38.27
2018-05-09T19:59:21.958Z,49.40
2018-05-09T20:01:50.074Z,43.90
2018-05-09T20:04:18.646Z,40.10
2018-05-09T20:06:46.928Z,44.67
2018-05-09T20:09:16.138Z,48.53
2018-05-09T20:11:43.611Z,45.40
2018-05-09T20:14:11.098Z,38.83
2018-05-09T20:16:38.710Z,51.93
2018-05-09T20:19:06.931Z,51.50
2018-05-09T20:21:34.391Z,51.87
2018-05-09T20:24:01.932Z,59.90
2018-05-09T20:26:29.410Z,53.70
2018-05-09T20:29:02.008Z,72.60
2018-05-09T20:31:47.115Z,63.07
2018-05-09T20:34:17.806Z,59.07
2018-05-09T20:36:46.040Z,59.67
2018-05-09T20:39:14.431Z,72.13
2018-05-09T20:41:42.111Z,57.23
2018-05-09T20:44:09.649Z,67.27
2018-05-09T20:46:37.219Z,66.17
2018-05-09T20:49:04.675Z,76.43
2018-05-09T20:51:44.144Z,71.43
2018-05-09T20:54:12.409Z,60.93
2018-05-09T20:56:40.638Z,63.37
2018-05-09T20:59:08.122Z,66.77
2018-05-09T21:01:47.655Z,58.37
2018-05-09T21:04:15.218Z,68.27
2018-05-09T21:06:42.765Z,61.73
2018-05-09T21:09:12.085Z,66.10
2018-05-09T21:11:41.256Z,55.67
2018-05-09T21:14:10.342Z,61.90
2018-05-09T21:16:39.486Z,52.73
2018-05-09T21:19:08.646Z,68.77
2018-05-09T21:21:37.773Z,71.50
2018-05-09T21:24:06.882Z,63.63
2018-05-09T21:26:36.045Z,66.27
2018-05-09T21:29:06.159Z,63.83
2018-05-09T21:31:35.251Z,61.43
2018-05-09T21:34:04.373Z,68.33
2018-05-09T21:36:33.471Z,67.03
2018-05-09T21:39:02.567Z,58.23
2018-05-09T21:41:31.969Z,62.03
2018-05-09T21:44:01.070Z,60.97
2018-05-09T21:46:30.279Z,63.43
2018-05-09T21:49:00.435Z,50.50
2018-05-09T21:51:30.550Z,52.93
2018-05-09T21:53:59.662Z,63.43
2018-05-09T21:56:28.771Z,63.77
2018-05-09T21:59:00.037Z,58.37
2018-05-09T22:01:29.134Z,55.83
2018-05-09T22:04:00.341Z,66.50
2018-05-09T22:06:29.466Z,50.97
2018-05-09T22:08:58.566Z,51.67
2018-05-09T22:11:27.720Z,59.47
2018-05-09T22:13:56.830Z,54.90
2018-05-09T22:16:26.882Z,66.00
2018-05-09T22:18:56.060Z,53.40
2018-05-09T22:21:25.118Z,60.60
2018-05-09T22:23:54.319Z,67.43
2018-05-09T22:26:23.517Z,53.73
2018-05-09T22:28:53.011Z,63.97
2018-05-09T22:31:22.198Z,61.57
2018-05-09T22:33:51.395Z,62.10
2018-05-09T22:36:20.611Z,65.33
2018-05-09T22:38:50.173Z,76.23
2018-05-09T22:41:19.272Z,73.67
2018-05-09T22:43:48.377Z,77.57
2018-05-09T22:46:17.469Z,76.50
2018-05-09T22:48:46.567Z,77.23
2018-05-09T22:51:15.769Z,87.73
2018-05-09T22:53:45.143Z,79.17
2018-05-09T22:56:14.252Z,81.40
2018-05-09T22:58:43.362Z,74.60
2018-05-09T23:01:12.608Z,84.13
2018-05-09T23:03:42.337Z,75.27
2018-05-09T23:06:11.430Z,78.37
2018-05-09T23:08:40.541Z,80.07
2018-05-09T23:11:09.666Z,103.00
2018-05-09T23:13:40.764Z,81.97
2018-05-09T23:16:09.878Z,81.90
2018-05-09T23:18:42.480Z,83.30
2018-05-09T23:21:11.656Z,79.10
2018-05-09T23:23:40.850Z,85.97
2018-05-09T23:26:10.043Z,89.63
2018-05-09T23:28:39.150Z,81.17
2018-05-09T23:31:08.337Z,73.80
2018-05-09T23:33:37.453Z,79.87
2018-05-09T23:36:06.628Z,78.03
2018-05-09T23:38:40.046Z,85.60
2018-05-09T23:41:09.164Z,95.57
2018-05-09T23:43:38.328Z,124.83
2018-05-09T23:46:07.529Z,136.40
2018-05-09T23:48:37.699Z,127.80
2018-05-09T23:51:06.852Z,127.17
2018-05-09T23:53:35.957Z,126.60
2018-05-09T23:56:06.027Z,131.63
2018-05-09T23:58:36.128Z,132.33
